S 386 Casilo — OZZP — position and weather

sailwx.info

Track history (hours):
 
Tides and Currents Weather Stations Pressure Air Temp Water Temp Dewpoint Dewpoint Depression Visibility Wind Speed Wind Dir Waves Ship Positions

S 386 Casilo

Last reported at 2014-Sep-21 00:08 UTC. Time now 2014-Sep-21 10:07 UTC.
Position N 58°12' E 010°25'.

Length 24 m.

Type: Fishing. MMSI: 219948000.

Date/timePositionNaut miles runAvg speedWind from/ knotsBaromVisibWave heightAir tempDewpointWater temp
2014-Sep-21 00:08N 58°12' E 010°25'5 8.5
2014-Sep-20 23:32N 58°11' E 010°35'5 5.1
2014-Sep-20 22:29N 58°12' E 010°45'1 1.3
2014-Sep-20 21:32N 58°11' E 010°45'2 1.7
2014-Sep-20 20:12N 58°08' E 010°45'3 1.8
2014-Sep-20 18:27N 58°05' E 010°47'2 1.8
2014-Sep-20 17:18N 58°03' E 010°47'2 1.8
2014-Sep-20 16:23N 58°02' E 010°47'2 2.1
2014-Sep-20 15:33N 58°03' E 010°46'2 2.1
2014-Sep-20 14:28N 58°05' E 010°45'5 1.8
2014-Sep-20 11:31N 58°10' E 010°39'2 1.7
2014-Sep-20 10:22N 58°11' E 010°36'2 1.9
2014-Sep-20 09:28N 58°12' E 010°34'2 1.9
2014-Sep-20 08:31N 58°12' E 010°30'2 1.9
2014-Sep-20 07:22N 58°13' E 010°26'2 2.0
2014-Sep-20 06:28N 58°13' E 010°23'2 2.3
2014-Sep-20 05:33N 58°12' E 010°19'6 5.7
2014-Sep-20 04:33N 58°11' E 010°29'8 8.4
2014-Sep-20 03:32N 58°06' E 010°43'4 3.5
2014-Sep-20 02:32N 58°03' E 010°48'2 1.3
2014-Sep-20 01:20N 58°03' E 010°45'1 1.8
2014-Sep-20 00:29N 58°05' E 010°44'14 2.0
2014-Sep-19 17:19N 58°12' E 010°21'30 2.9
2014-Sep-19 07:04N 57°43' E 010°35'0 0.0
2014-Sep-19 06:31N 57°43' E 010°35'0 0.0
2014-Sep-19 05:31N 57°43' E 010°35'0 0.0
2014-Sep-19 04:25N 57°43' E 010°35'0 0.0
2014-Sep-19 03:28N 57°43' E 010°35'0 0.0
2014-Sep-19 02:22N 57°43' E 010°35'0 0.0
2014-Sep-18 23:10N 57°43' E 010°35'26 1.3
2014-Sep-18 02:33N 58°09' E 010°36'6 5.6
2014-Sep-18 01:32N 58°05' E 010°44'4 0.1
2014-Sep-16 21:33N 58°04' E 010°50'  
2014-Sep-14 05:15N 58°49' E 010°10'1 1.9
2014-Sep-14 04:33N 58°48' E 010°12'2 2.0
2014-Sep-14 03:33N 58°46' E 010°14'36 1.0
2014-Sep-12 15:27N 58°12' E 010°33'8 9.1
2014-Sep-12 14:33N 58°04' E 010°37'9 8.6
2014-Sep-12 13:31N 57°55' E 010°40'10 9.0
2014-Sep-12 12:21N 57°45' E 010°43'4 4.0
2014-Sep-12 11:17N 57°43' E 010°35'0 0.0
2014-Sep-12 05:23N 57°43' E 010°35'0 0.0
2014-Sep-12 03:32N 57°43' E 010°35'0 0.0
2014-Sep-11 18:26N 57°43' E 010°35'0 0.1
2014-Sep-11 16:21N 57°43' E 010°36'0 0.0
2014-Sep-11 15:24N 57°43' E 010°36'3 2.7
2014-Sep-11 14:28N 57°44' E 010°40'  
Track history (hours):
 
Tides and Currents Weather Stations Pressure Air Temp Water Temp Dewpoint Dewpoint Depression Visibility Wind Speed Wind Dir Waves Ship Positions

S 386 Casilo

Last reported at 2014-Sep-21 00:08 UTC. Time now 2014-Sep-21 10:07 UTC.
Position N 58°12' E 010°25'.

Length 24 m.

Type: Fishing. MMSI: 219948000.

Date/timePositionNaut miles runAvg speedWind from/ knotsBaromVisibWave heightAir tempDewpointWater temp
2014-Sep-21 00:08N 58°12' E 010°25'5 8.5
2014-Sep-20 23:32N 58°11' E 010°35'5 5.1
2014-Sep-20 22:29N 58°12' E 010°45'1 1.3
2014-Sep-20 21:32N 58°11' E 010°45'2 1.7
2014-Sep-20 20:12N 58°08' E 010°45'3 1.8
2014-Sep-20 18:27N 58°05' E 010°47'2 1.8
2014-Sep-20 17:18N 58°03' E 010°47'2 1.8
2014-Sep-20 16:23N 58°02' E 010°47'2 2.1
2014-Sep-20 15:33N 58°03' E 010°46'2 2.1
2014-Sep-20 14:28N 58°05' E 010°45'5 1.8
2014-Sep-20 11:31N 58°10' E 010°39'2 1.7
2014-Sep-20 10:22N 58°11' E 010°36'2 1.9
2014-Sep-20 09:28N 58°12' E 010°34'2 1.9
2014-Sep-20 08:31N 58°12' E 010°30'2 1.9
2014-Sep-20 07:22N 58°13' E 010°26'2 2.0
2014-Sep-20 06:28N 58°13' E 010°23'2 2.3
2014-Sep-20 05:33N 58°12' E 010°19'6 5.7
2014-Sep-20 04:33N 58°11' E 010°29'8 8.4
2014-Sep-20 03:32N 58°06' E 010°43'4 3.5
2014-Sep-20 02:32N 58°03' E 010°48'2 1.3
2014-Sep-20 01:20N 58°03' E 010°45'1 1.8
2014-Sep-20 00:29N 58°05' E 010°44'14 2.0
2014-Sep-19 17:19N 58°12' E 010°21'30 2.9
2014-Sep-19 07:04N 57°43' E 010°35'0 0.0
2014-Sep-19 06:31N 57°43' E 010°35'0 0.0
2014-Sep-19 05:31N 57°43' E 010°35'0 0.0
2014-Sep-19 04:25N 57°43' E 010°35'0 0.0
2014-Sep-19 03:28N 57°43' E 010°35'0 0.0
2014-Sep-19 02:22N 57°43' E 010°35'0 0.0
2014-Sep-18 23:10N 57°43' E 010°35'26 1.3
2014-Sep-18 02:33N 58°09' E 010°36'6 5.6
2014-Sep-18 01:32N 58°05' E 010°44'4 0.1
2014-Sep-16 21:33N 58°04' E 010°50'  
2014-Sep-14 05:15N 58°49' E 010°10'1 1.9
2014-Sep-14 04:33N 58°48' E 010°12'2 2.0
2014-Sep-14 03:33N 58°46' E 010°14'36 1.0
2014-Sep-12 15:27N 58°12' E 010°33'8 9.1
2014-Sep-12 14:33N 58°04' E 010°37'9 8.6
2014-Sep-12 13:31N 57°55' E 010°40'10 9.0
2014-Sep-12 12:21N 57°45' E 010°43'4 4.0
2014-Sep-12 11:17N 57°43' E 010°35'0 0.0
2014-Sep-12 05:23N 57°43' E 010°35'0 0.0
2014-Sep-12 03:32N 57°43' E 010°35'0 0.0
2014-Sep-11 18:26N 57°43' E 010°35'0 0.1
2014-Sep-11 16:21N 57°43' E 010°36'0 0.0
2014-Sep-11 15:24N 57°43' E 010°36'3 2.7
2014-Sep-11 14:28N 57°44' E 010°40'  

Dump ship's entire track history